Time;durP1;ratioP1;P1;durP2;ratioP2;P2;SDS_P1;SDS_P2;PMS_P1;PMS_P2;Temp;Humidity;BMP_temperature;BMP_pressure;BME280_temperature;BME280_humidity;BME280_pressure;Samples;Min_cycle;Max_cycle;Signal;HPM_P1;HPM_P2
2023/02/27 00:01:59;;;;;;;4.87;1.45;;;0.80;99.90;;;;;;4393816;32;20125;-75
2023/02/27 00:04:24;;;;;;;0.50;0.50;;;0.60;99.90;;;;;;4392045;32;20545;-76
2023/02/27 00:06:50;;;;;;;0.50;0.50;;;0.60;99.90;;;;;;4393532;32;20112;-74
2023/02/27 00:09:16;;;;;;;1.85;1.15;;;0.60;99.90;;;;;;4392554;32;20524;-75
2023/02/27 00:11:42;;;;;;;0.47;0.47;;;0.50;99.90;;;;;;4391895;32;20098;-74
2023/02/27 00:14:07;;;;;;;0.68;0.68;;;0.40;99.90;;;;;;4393562;32;20431;-75
2023/02/27 00:16:33;;;;;;;0.47;0.47;;;0.50;99.90;;;;;;4392265;32;20137;-75
2023/02/27 00:19:03;;;;;;;0.80;0.80;;;0.50;99.90;;;;;;4393098;32;20091;-76
2023/02/27 00:21:30;;;;;;;0.75;0.75;;;0.30;99.90;;;;;;4392251;32;20107;-75
2023/02/27 00:23:55;;;;;;;1.40;0.68;;;0.30;99.90;;;;;;4391508;32;20074;-74
2023/02/27 00:26:21;;;;;;;0.52;0.52;;;0.30;99.90;;;;;;4394744;32;20078;-74
2023/02/27 00:28:46;;;;;;;0.60;0.60;;;0.40;99.90;;;;;;4392472;32;21600;-75
2023/02/27 00:31:12;;;;;;;0.50;0.50;;;0.30;99.90;;;;;;4390016;32;20229;-75
2023/02/27 00:33:37;;;;;;;0.45;0.45;;;0.30;99.90;;;;;;4392007;32;20090;-75
2023/02/27 00:36:03;;;;;;;0.88;0.88;;;0.30;99.90;;;;;;4392291;32;20453;-75
2023/02/27 00:38:29;;;;;;;0.50;0.50;;;0.30;99.90;;;;;;4391764;32;20442;-76
2023/02/27 00:40:54;;;;;;;0.40;0.40;;;0.30;99.90;;;;;;4391751;32;20082;-76
2023/02/27 00:43:20;;;;;;;0.50;0.50;;;0.10;99.90;;;;;;4391192;32;20121;-76
2023/02/27 00:45:47;;;;;;;0.52;0.52;;;0.10;99.90;;;;;;4391288;32;20090;-75
2023/02/27 00:48:12;;;;;;;0.45;0.45;;;0.00;99.90;;;;;;4393429;32;20130;-75
2023/02/27 00:50:38;;;;;;;0.40;0.40;;;-0.10;99.90;;;;;;4394029;32;20173;-74
2023/02/27 00:53:04;;;;;;;0.35;0.35;;;-0.20;99.90;;;;;;4391969;32;20065;-75
2023/02/27 00:55:29;;;;;;;0.50;0.50;;;-0.20;99.90;;;;;;4391430;32;20105;-76
2023/02/27 00:57:56;;;;;;;1.48;1.37;;;-0.20;99.90;;;;;;4390517;32;20418;-74
2023/02/27 01:00:21;;;;;;;0.50;0.50;;;-0.10;99.90;;;;;;4389678;32;20066;-74
2023/02/27 01:02:47;;;;;;;0.60;0.60;;;-0.30;99.90;;;;;;4391930;32;20066;-76
2023/02/27 01:05:13;;;;;;;1.45;1.35;;;-0.50;99.90;;;;;;4392772;32;20543;-75
2023/02/27 01:07:39;;;;;;;0.70;0.70;;;-0.50;99.90;;;;;;4392673;32;20065;-75
2023/02/27 01:10:06;;;;;;;0.40;0.40;;;-0.40;99.90;;;;;;4387804;32;20102;-75
2023/02/27 01:12:31;;;;;;;0.60;0.60;;;-0.40;99.90;;;;;;4390114;32;20105;-75
2023/02/27 01:14:57;;;;;;;0.40;0.40;;;-0.20;99.90;;;;;;4390633;32;20082;-75
2023/02/27 01:17:23;;;;;;;0.40;0.40;;;-0.10;99.90;;;;;;4391127;32;20469;-75
2023/02/27 01:19:48;;;;;;;0.60;0.60;;;-0.10;99.90;;;;;;4390053;32;20148;-76
2023/02/27 01:22:13;;;;;;;0.40;0.40;;;0.00;99.90;;;;;;4393301;32;20557;-75
2023/02/27 01:24:39;;;;;;;0.50;0.50;;;-0.10;99.90;;;;;;4390191;32;20097;-75
2023/02/27 01:27:04;;;;;;;0.50;0.50;;;-0.10;99.90;;;;;;4392972;32;20155;-75
2023/02/27 01:29:30;;;;;;;0.55;0.55;;;0.00;99.90;;;;;;4388947;32;20419;-75
2023/02/27 01:31:56;;;;;;;0.50;0.50;;;0.00;99.90;;;;;;4389765;32;20106;-76
2023/02/27 01:34:21;;;;;;;0.60;0.60;;;-0.10;99.90;;;;;;4391438;32;20097;-75
2023/02/27 01:36:47;;;;;;;0.40;0.40;;;-0.10;99.90;;;;;;4393233;32;20066;-74
2023/02/27 01:39:12;;;;;;;0.45;0.45;;;-0.10;99.90;;;;;;4388613;32;20436;-76
2023/02/27 01:41:38;;;;;;;0.62;0.62;;;-0.10;99.90;;;;;;4389751;32;20069;-76
2023/02/27 01:44:07;;;;;;;0.40;0.40;;;-0.20;99.90;;;;;;4391861;32;20716;-76
2023/02/27 01:46:34;;;;;;;0.82;0.82;;;-0.20;99.90;;;;;;4390318;32;20093;-75
2023/02/27 01:49:06;;;;;;;0.62;0.62;;;-0.30;99.90;;;;;;4390754;32;20093;-75
2023/02/27 01:51:35;;;;;;;0.60;0.60;;;-0.30;99.90;;;;;;4390212;32;20522;-76
2023/02/27 01:54:04;;;;;;;0.60;0.60;;;-0.20;99.90;;;;;;4390620;32;20398;-75
2023/02/27 01:56:30;;;;;;;0.88;0.85;;;-0.30;99.90;;;;;;4387588;32;20214;-74
2023/02/27 01:59:02;;;;;;;0.60;0.60;;;-0.30;99.90;;;;;;4389985;32;20058;-75
2023/02/27 02:01:30;;;;;;;0.50;0.50;;;-0.30;99.90;;;;;;4391166;32;20189;-76
2023/02/27 02:04:04;;;;;;;0.40;0.40;;;-0.30;99.90;;;;;;4390778;32;20231;-75
2023/02/27 02:06:32;;;;;;;0.50;0.50;;;-0.30;99.90;;;;;;4391344;32;20066;-74
2023/02/27 02:08:59;;;;;;;0.40;0.40;;;-0.30;99.90;;;;;;4388976;32;20627;-75
2023/02/27 02:11:25;;;;;;;0.50;0.50;;;-0.30;99.90;;;;;;4389454;32;20536;-75
2023/02/27 02:13:56;;;;;;;0.40;0.40;;;-0.40;99.90;;;;;;4389384;32;20086;-75
2023/02/27 02:16:33;;;;;;;0.52;0.52;;;-0.50;99.90;;;;;;4389954;32;20079;-76
2023/02/27 02:19:27;;;;;;;0.40;0.40;;;-0.60;99.90;;;;;;4390477;32;20114;-75
2023/02/27 02:22:08;;;;;;;0.68;0.68;;;-0.70;99.90;;;;;;4378021;32;20066;-74
2023/02/27 02:24:53;;;;;;;;;;;-0.80;99.90;;;;;;4388952;32;20105;-74
2023/02/27 02:27:51;;;;;;;0.43;0.43;;;-0.70;99.90;;;;;;4382517;32;20345;-75
2023/02/27 02:30:42;;;;;;;0.50;0.50;;;-0.70;99.90;;;;;;4376316;32;20122;-74
2023/02/27 02:33:29;;;;;;;0.50;0.50;;;-0.70;99.90;;;;;;4362585;32;20086;-74
2023/02/27 02:36:31;;;;;;;0.80;0.80;;;-0.50;99.90;;;;;;4388682;32;20462;-74
2023/02/27 02:39:29;;;;;;;0.50;0.50;;;-0.40;99.90;;;;;;4379325;32;20119;-74
2023/02/27 02:42:24;;;;;;;0.40;0.40;;;-0.60;99.90;;;;;;4376052;32;20542;-76
2023/02/27 02:45:05;;;;;;;0.80;0.80;;;-0.50;99.90;;;;;;4372302;32;20133;-75
2023/02/27 02:47:59;;;;;;;1.40;0.70;;;-0.50;99.90;;;;;;4388355;32;20077;-76
2023/02/27 02:50:35;;;;;;;0.40;0.40;;;-0.60;99.90;;;;;;4380547;32;20141;-76
2023/02/27 02:53:12;;;;;;;0.50;0.50;;;-0.80;99.90;;;;;;4388608;32;20103;-75
2023/02/27 02:56:01;;;;;;;0.50;0.50;;;-0.70;99.90;;;;;;4389137;32;20419;-76
2023/02/27 02:58:34;;;;;;;0.45;0.45;;;-0.60;99.90;;;;;;4380477;32;20066;-75
2023/02/27 03:01:10;;;;;;;0.50;0.50;;;-0.50;99.90;;;;;;4390097;32;20093;-74
2023/02/27 03:03:44;;;;;;;0.50;0.50;;;-0.70;99.90;;;;;;4391670;32;20118;-74
2023/02/27 03:06:15;;;;;;;0.50;0.50;;;-0.70;99.90;;;;;;4391082;32;20102;-75
2023/02/27 03:08:54;;;;;;;0.60;0.60;;;-0.60;99.90;;;;;;4389701;32;20074;-76
2023/02/27 03:11:23;;;;;;;0.50;0.50;;;-0.60;99.90;;;;;;4388404;32;20098;-75
2023/02/27 03:13:55;;;;;;;0.50;0.50;;;-0.60;99.90;;;;;;4387298;32;20134;-75
2023/02/27 03:16:43;;;;;;;0.60;0.60;;;-0.90;99.90;;;;;;4389945;32;21275;-75
2023/02/27 03:19:33;;;;;;;0.40;0.40;;;-1.00;99.90;;;;;;4379359;32;20070;-76
2023/02/27 03:22:04;;;;;;;0.60;0.60;;;-1.10;99.90;;;;;;4374951;32;20132;-75
2023/02/27 03:24:36;;;;;;;0.50;0.50;;;-1.10;99.90;;;;;;4389315;32;20110;-75
2023/02/27 03:27:04;;;;;;;0.60;0.60;;;-1.10;99.90;;;;;;4392032;32;21757;-75
2023/02/27 03:29:38;;;;;;;0.50;0.50;;;-1.20;99.90;;;;;;4391050;32;20103;-76
2023/02/27 03:32:12;;;;;;;0.40;0.40;;;-1.00;99.90;;;;;;4390978;32;20070;-74
2023/02/27 03:34:39;;;;;;;0.55;0.55;;;-0.90;99.90;;;;;;4392010;32;20089;-76
2023/02/27 03:37:21;;;;;;;0.45;0.45;;;-0.80;99.90;;;;;;4392738;32;20118;-75
2023/02/27 03:39:51;;;;;;;0.50;0.50;;;-0.90;99.90;;;;;;4390948;32;20094;-74
2023/02/27 03:42:33;;;;;;;0.50;0.50;;;-0.90;99.90;;;;;;4387887;32;20134;-75
2023/02/27 03:45:17;;;;;;;0.40;0.40;;;-0.90;99.90;;;;;;4389665;32;20157;-75
2023/02/27 03:47:42;;;;;;;0.40;0.40;;;-0.90;99.90;;;;;;4391386;32;20574;-74
2023/02/27 03:50:08;;;;;;;0.50;0.50;;;-0.90;99.90;;;;;;4393270;32;20090;-75
2023/02/27 03:52:34;;;;;;;0.40;0.40;;;-0.90;99.90;;;;;;4392586;32;20093;-74
2023/02/27 03:55:08;;;;;;;0.50;0.50;;;-0.90;99.90;;;;;;4391773;32;20094;-75
2023/02/27 03:57:35;;;;;;;0.50;0.50;;;-0.90;99.90;;;;;;4393490;32;20089;-74
2023/02/27 04:00:03;;;;;;;0.40;0.40;;;-0.80;99.90;;;;;;4393877;32;20066;-75
2023/02/27 04:02:29;;;;;;;0.40;0.40;;;-0.80;99.90;;;;;;4393062;32;20121;-75
2023/02/27 04:04:54;;;;;;;0.50;0.50;;;-0.70;99.90;;;;;;4392410;32;20070;-75
2023/02/27 04:08:00;;;;;;;0.50;0.50;;;-0.70;99.90;;;;;;4392535;32;20089;-75
2023/02/27 04:10:51;;;;;;;0.73;0.73;;;-0.70;99.90;;;;;;4385330;32;20560;-74
2023/02/27 04:13:29;;;;;;;0.57;0.57;;;-0.60;99.90;;;;;;4389501;32;20232;-75
2023/02/27 04:16:01;;;;;;;0.40;0.40;;;-0.70;99.90;;;;;;4390054;32;20081;-75
2023/02/27 04:18:51;;;;;;;0.60;0.60;;;-0.70;99.90;;;;;;4392821;32;20129;-75
2023/02/27 04:21:39;;;;;;;0.50;0.50;;;-0.80;99.90;;;;;;4383894;32;20078;-76
2023/02/27 04:24:44;;;;;;;0.47;0.47;;;-0.80;99.90;;;;;;4378816;32;20085;-75
2023/02/27 04:27:22;;;;;;;0.50;0.50;;;-0.90;99.90;;;;;;4380325;32;20106;-74
2023/02/27 04:30:18;;;;;;;0.57;0.57;;;-0.80;99.90;;;;;;4393908;32;20102;-76
2023/02/27 04:32:55;;;;;;;0.52;0.52;;;-0.80;99.90;;;;;;4379530;32;20077;-76
2023/02/27 04:35:46;;;;;;;1.73;1.60;;;-0.80;99.90;;;;;;4391031;32;20074;-75
2023/02/27 04:38:18;;;;;;;;;;;-0.80;99.90;;;;;;4379241;32;20079;-75
2023/02/27 04:40:52;;;;;;;0.40;0.40;;;-0.80;99.90;;;;;;4391479;32;19961;-75
2023/02/27 04:43:20;;;;;;;0.50;0.50;;;-0.80;99.90;;;;;;4391522;32;20185;-75
2023/02/27 04:45:47;;;;;;;0.50;0.50;;;-0.70;99.90;;;;;;4391453;32;20061;-76
2023/02/27 04:48:22;;;;;;;1.58;1.45;;;-0.80;99.90;;;;;;4394289;32;20062;-75
2023/02/27 04:50:57;;;;;;;0.50;0.50;;;-0.90;99.90;;;;;;4395112;32;20122;-75
2023/02/27 04:53:29;;;;;;;0.68;0.68;;;-1.10;99.90;;;;;;4391194;32;20050;-76
2023/02/27 04:56:03;;;;;;;0.57;0.57;;;-1.00;99.90;;;;;;4392300;32;20074;-75
2023/02/27 04:58:39;;;;;;;0.45;0.45;;;-0.90;99.90;;;;;;4391726;32;20117;-75
2023/02/27 05:01:14;;;;;;;0.50;0.50;;;-0.90;99.90;;;;;;4392482;32;20078;-76
2023/02/27 05:03:44;;;;;;;0.45;0.45;;;-0.90;99.90;;;;;;4391040;32;20514;-75
2023/02/27 05:06:11;;;;;;;0.50;0.50;;;-0.90;99.90;;;;;;4391752;32;20070;-75
2023/02/27 05:08:52;;;;;;;0.50;0.50;;;-1.10;99.90;;;;;;4390832;32;20114;-76
2023/02/27 05:11:28;;;;;;;0.88;0.88;;;-1.10;99.90;;;;;;4391735;32;20081;-75
2023/02/27 05:14:00;;;;;;;0.52;0.52;;;-1.10;99.90;;;;;;4390625;32;20069;-74
2023/02/27 05:16:32;;;;;;;0.60;0.60;;;-1.00;99.90;;;;;;4390199;32;20083;-75
2023/02/27 05:18:58;;;;;;;0.40;0.40;;;-0.90;99.90;;;;;;4391402;32;20411;-75
2023/02/27 05:21:26;;;;;;;0.50;0.50;;;-0.80;99.90;;;;;;4386968;32;20102;-75
2023/02/27 05:23:55;;;;;;;0.40;0.40;;;-0.80;99.90;;;;;;4390345;32;20103;-75
2023/02/27 05:26:31;;;;;;;0.40;0.40;;;-0.90;99.90;;;;;;4389618;32;20082;-75
2023/02/27 05:29:08;;;;;;;0.40;0.40;;;-0.90;99.90;;;;;;4390722;32;20157;-75
2023/02/27 05:31:42;;;;;;;0.50;0.50;;;-0.90;99.90;;;;;;4391638;32;20073;-75
2023/02/27 05:34:32;;;;;;;0.50;0.50;;;-0.90;99.90;;;;;;4390121;32;20074;-75
2023/02/27 05:37:06;;;;;;;0.50;0.50;;;-1.00;99.90;;;;;;4379935;32;20121;-75
2023/02/27 05:39:36;;;;;;;0.60;0.60;;;-1.00;99.90;;;;;;4388051;32;20086;-75
2023/02/27 05:42:07;;;;;;;0.70;0.70;;;-1.00;99.90;;;;;;4390190;32;20073;-74
2023/02/27 05:44:36;;;;;;;0.40;0.40;;;-1.00;99.90;;;;;;4389762;32;20180;-75
2023/02/27 05:47:09;;;;;;;0.65;0.65;;;-0.90;99.90;;;;;;4389939;32;20093;-75
2023/02/27 05:49:42;;;;;;;0.62;0.62;;;-0.80;99.90;;;;;;4391897;32;20087;-75
2023/02/27 05:52:13;;;;;;;0.60;0.60;;;-0.80;99.90;;;;;;4389677;32;20061;-74
2023/02/27 05:54:49;;;;;;;0.50;0.50;;;-0.90;99.90;;;;;;4390947;32;20069;-76
2023/02/27 05:57:22;;;;;;;0.55;0.55;;;-0.90;99.90;;;;;;4390507;32;20107;-74
2023/02/27 05:59:57;;;;;;;0.40;0.40;;;-0.90;99.90;;;;;;4390904;32;20093;-75
2023/02/27 06:02:23;;;;;;;0.50;0.50;;;-0.90;99.90;;;;;;4383259;32;20059;-75
2023/02/27 06:04:48;;;;;;;0.50;0.50;;;-0.80;99.90;;;;;;4387574;32;20097;-75
2023/02/27 06:07:14;;;;;;;0.40;0.40;;;-0.90;99.90;;;;;;4390288;32;20124;-75
2023/02/27 06:09:42;;;;;;;0.50;0.50;;;-1.00;99.90;;;;;;4386092;32;20086;-75
2023/02/27 06:12:09;;;;;;;0.57;0.57;;;-1.00;99.90;;;;;;4385805;32;20086;-75
2023/02/27 06:14:34;;;;;;;0.40;0.40;;;-1.00;99.90;;;;;;4390637;32;20074;-74
2023/02/27 06:17:00;;;;;;;0.50;0.50;;;-1.00;99.90;;;;;;4379487;32;20122;-74
2023/02/27 06:19:26;;;;;;;0.43;0.43;;;-1.00;99.90;;;;;;4385943;32;20085;-75
2023/02/27 06:21:53;;;;;;;1.00;1.00;;;-1.00;99.90;;;;;;4386743;32;20368;-74
2023/02/27 06:24:18;;;;;;;0.60;0.60;;;-1.00;99.90;;;;;;4389545;32;20128;-75
2023/02/27 06:26:44;;;;;;;0.60;0.60;;;-0.90;99.90;;;;;;4376124;32;20097;-75
2023/02/27 06:29:09;;;;;;;0.40;0.40;;;-1.00;99.90;;;;;;4384241;32;20070;-73
2023/02/27 06:31:35;;;;;;;0.45;0.45;;;-1.00;99.90;;;;;;4360896;32;21167;-73
2023/02/27 06:34:01;;;;;;;0.40;0.40;;;-0.90;99.90;;;;;;4384742;32;20062;-74
2023/02/27 06:36:28;;;;;;;0.75;0.75;;;-1.00;99.90;;;;;;4389022;32;20127;-74
2023/02/27 06:38:54;;;;;;;0.98;0.93;;;-1.00;99.90;;;;;;4382833;32;20086;-73
2023/02/27 06:41:20;;;;;;;0.40;0.40;;;-1.00;99.90;;;;;;4388269;32;20078;-74
2023/02/27 06:43:45;;;;;;;0.98;0.98;;;-0.90;99.90;;;;;;4383634;32;20365;-74
2023/02/27 06:46:11;;;;;;;0.75;0.75;;;-0.90;99.90;;;;;;4386335;32;20526;-74
2023/02/27 06:48:37;;;;;;;10.95;0.93;;;-0.80;99.90;;;;;;4384109;32;20170;-74
2023/02/27 06:51:02;;;;;;;0.50;0.50;;;-0.90;99.90;;;;;;4379015;32;20180;-74
2023/02/27 06:53:28;;;;;;;0.60;0.60;;;-0.90;99.90;;;;;;4380375;32;20137;-74
2023/02/27 06:55:54;;;;;;;4.10;1.25;;;-0.80;99.90;;;;;;4383621;32;20431;-75
2023/02/27 06:58:19;;;;;;;0.88;0.80;;;-0.70;99.90;;;;;;4380980;32;20087;-75
2023/02/27 07:00:45;;;;;;;0.40;0.40;;;-0.80;99.90;;;;;;4386257;32;20518;-76
2023/02/27 07:03:12;;;;;;;0.50;0.50;;;-0.80;99.90;;;;;;4383875;32;20835;-73
2023/02/27 07:05:37;;;;;;;0.35;0.35;;;-0.90;99.90;;;;;;4383428;32;20188;-73
2023/02/27 07:08:03;;;;;;;0.73;0.73;;;-0.80;99.90;;;;;;4388747;32;20698;-74
2023/02/27 07:10:29;;;;;;;1.15;1.08;;;-0.80;99.90;;;;;;4389345;32;20083;-75
2023/02/27 07:12:55;;;;;;;0.45;0.45;;;-0.90;99.90;;;;;;4377605;32;20160;-74
2023/02/27 07:15:21;;;;;;;0.45;0.45;;;-0.90;99.90;;;;;;4386478;32;20150;-74
2023/02/27 07:17:46;;;;;;;0.80;0.80;;;-0.90;99.90;;;;;;4379099;32;20089;-75
2023/02/27 07:20:12;;;;;;;0.50;0.50;;;-0.80;99.90;;;;;;4383354;32;20066;-73
2023/02/27 07:22:39;;;;;;;0.50;0.50;;;-0.70;99.90;;;;;;4381077;32;20114;-75
2023/02/27 07:25:06;;;;;;;0.60;0.60;;;-0.50;99.90;;;;;;4381179;32;20057;-74
2023/02/27 07:27:31;;;;;;;0.60;0.60;;;-0.40;99.90;;;;;;4379424;32;20233;-74
2023/02/27 07:29:57;;;;;;;0.43;0.43;;;-0.30;99.90;;;;;;4384005;32;20147;-74
2023/02/27 07:32:23;;;;;;;1.45;1.27;;;-0.20;99.90;;;;;;4384984;32;20090;-74
2023/02/27 07:34:49;;;;;;;0.40;0.40;;;-0.20;99.90;;;;;;4380790;32;20086;-74
2023/02/27 07:37:15;;;;;;;0.47;0.47;;;-0.10;99.90;;;;;;4385096;32;20486;-76
2023/02/27 07:39:40;;;;;;;0.80;0.80;;;-0.10;99.90;;;;;;4385127;32;20337;-76
2023/02/27 07:42:06;;;;;;;0.80;0.73;;;-0.10;99.90;;;;;;4382689;32;20069;-73
2023/02/27 07:44:33;;;;;;;0.47;0.47;;;-0.10;99.90;;;;;;4379043;32;20517;-75
2023/02/27 07:46:58;;;;;;;0.60;0.60;;;0.00;99.90;;;;;;4375119;32;20082;-75
2023/02/27 07:49:24;;;;;;;0.75;0.75;;;0.00;99.90;;;;;;4381445;32;20078;-75
2023/02/27 07:51:49;;;;;;;0.43;0.43;;;0.10;99.90;;;;;;4376329;32;20089;-74
2023/02/27 07:54:17;;;;;;;0.40;0.40;;;0.10;99.90;;;;;;4377763;32;20086;-74
2023/02/27 07:56:42;;;;;;;0.50;0.50;;;0.00;99.90;;;;;;4379270;32;20601;-76
2023/02/27 07:59:09;;;;;;;0.50;0.50;;;0.00;99.90;;;;;;4380705;32;20082;-77
2023/02/27 08:01:34;;;;;;;0.90;0.90;;;0.10;99.90;;;;;;4383503;32;20274;-77
2023/02/27 08:04:00;;;;;;;0.47;0.47;;;0.10;99.90;;;;;;4380374;32;20439;-76
2023/02/27 08:06:25;;;;;;;0.43;0.43;;;0.10;99.90;;;;;;4382137;32;20086;-78
2023/02/27 08:08:51;;;;;;;0.50;0.50;;;0.20;99.90;;;;;;4382198;32;21452;-77
2023/02/27 08:11:17;;;;;;;0.60;0.60;;;0.10;99.90;;;;;;4379845;32;20073;-80
2023/02/27 08:13:44;;;;;;;0.57;0.57;;;0.20;99.90;;;;;;4381807;32;20081;-76
2023/02/27 08:16:10;;;;;;;0.82;0.82;;;0.20;99.90;;;;;;4376940;32;20129;-75
2023/02/27 08:18:35;;;;;;;1.12;1.02;;;0.30;99.90;;;;;;4378337;32;20090;-73
2023/02/27 08:21:03;;;;;;;0.40;0.40;;;0.40;99.90;;;;;;4377862;32;20198;-74
2023/02/27 08:23:29;;;;;;;0.40;0.40;;;0.50;99.90;;;;;;4379302;32;20611;-75
2023/02/27 08:25:56;;;;;;;0.88;0.88;;;0.50;99.90;;;;;;4385483;32;20146;-75
2023/02/27 08:28:23;;;;;;;0.43;0.43;;;0.50;99.90;;;;;;4380919;32;20462;-75
2023/02/27 08:30:49;;;;;;;0.50;0.50;;;0.60;99.90;;;;;;4380178;32;20078;-75
2023/02/27 08:33:16;;;;;;;0.82;0.73;;;0.70;99.90;;;;;;4379945;32;20082;-75
2023/02/27 08:35:41;;;;;;;0.85;0.80;;;0.80;99.90;;;;;;4378404;32;20102;-74
2023/02/27 08:38:07;;;;;;;0.70;0.70;;;1.00;99.90;;;;;;4375755;32;20127;-74
2023/02/27 08:40:32;;;;;;;0.40;0.40;;;1.10;99.90;;;;;;4382041;32;20110;-76
2023/02/27 08:42:58;;;;;;;0.60;0.60;;;1.20;99.90;;;;;;4367407;32;20194;-75
2023/02/27 08:45:23;;;;;;;0.50;0.50;;;1.40;99.90;;;;;;4377798;32;22003;-74
2023/02/27 08:47:49;;;;;;;0.52;0.52;;;1.40;99.90;;;;;;4364189;32;20537;-74
2023/02/27 08:50:14;;;;;;;0.50;0.50;;;1.50;99.90;;;;;;4368276;32;20092;-76
2023/02/27 08:52:40;;;;;;;0.40;0.40;;;1.60;99.90;;;;;;4370109;32;20090;-77
2023/02/27 08:55:06;;;;;;;0.50;0.50;;;1.70;99.90;;;;;;4370865;32;20110;-77
2023/02/27 08:57:32;;;;;;;0.50;0.50;;;1.80;99.90;;;;;;4376988;32;20078;-76
2023/02/27 08:59:57;;;;;;;0.50;0.50;;;1.80;99.90;;;;;;4382670;32;20268;-75
2023/02/27 09:02:25;;;;;;;0.70;0.70;;;1.90;99.90;;;;;;4378117;32;20074;-73
2023/02/27 09:04:51;;;;;;;1.87;0.95;;;1.90;99.90;;;;;;4378185;32;20439;-75
2023/02/27 09:07:16;;;;;;;0.80;0.80;;;2.00;99.90;;;;;;4378030;32;20141;-74
2023/02/27 09:09:42;;;;;;;0.82;0.82;;;2.10;99.90;;;;;;4375375;32;21009;-73
2023/02/27 09:12:09;;;;;;;0.50;0.50;;;2.20;99.90;;;;;;4375706;32;20770;-74
2023/02/27 09:14:34;;;;;;;0.43;0.43;;;2.20;99.90;;;;;;4368278;32;20916;-76
2023/02/27 09:16:59;;;;;;;0.40;0.40;;;2.30;99.90;;;;;;4365403;32;20139;-74
2023/02/27 09:19:25;;;;;;;0.40;0.40;;;2.40;99.90;;;;;;4368614;32;20153;-75
2023/02/27 09:21:51;;;;;;;0.60;0.60;;;2.60;99.90;;;;;;4374625;32;20082;-76
2023/02/27 09:24:17;;;;;;;0.75;0.57;;;2.70;99.90;;;;;;4369128;32;20090;-75
2023/02/27 09:26:42;;;;;;;0.77;0.77;;;2.70;99.90;;;;;;4367886;32;22234;-74
2023/02/27 09:29:07;;;;;;;0.68;0.68;;;2.80;99.90;;;;;;4368902;32;20215;-75
2023/02/27 09:31:33;;;;;;;0.70;0.70;;;2.90;99.90;;;;;;4366499;32;20097;-76
2023/02/27 09:34:00;;;;;;;0.43;0.43;;;3.10;99.90;;;;;;4369651;32;21104;-77
2023/02/27 09:36:26;;;;;;;0.40;0.40;;;3.20;99.90;;;;;;4371625;32;20813;-75
2023/02/27 09:38:52;;;;;;;0.82;0.82;;;3.30;99.90;;;;;;4369163;32;20114;-76
2023/02/27 09:41:31;;;;;;;0.50;0.50;;;3.30;99.90;;;;;;4365062;32;21353;-75
2023/02/27 09:43:57;;;;;;;0.40;0.40;;;3.40;99.90;;;;;;4373719;32;20089;-75
2023/02/27 09:46:24;;;;;;;1.08;0.85;;;3.40;99.90;;;;;;4375713;32;20526;-75
2023/02/27 09:48:53;;;;;;;0.50;0.50;;;3.60;99.90;;;;;;4376954;32;20078;-79
2023/02/27 09:51:21;;;;;;;0.40;0.40;;;3.70;99.90;;;;;;4377666;32;20144;-77
2023/02/27 09:53:50;;;;;;;0.52;0.52;;;3.90;99.90;;;;;;4378068;32;20093;-75
2023/02/27 09:56:41;;;;;;;0.68;0.68;;;3.80;99.90;;;;;;4384459;32;20083;-82
2023/02/27 09:59:15;;;;;;;;;;;3.50;99.90;;;;;;4384018;32;20173;-76
2023/02/27 10:01:55;;;;;;;0.50;0.50;;;3.40;99.90;;;;;;4376126;32;20353;-78
2023/02/27 10:04:29;;;;;;;;;;;3.50;99.90;;;;;;4377400;32;20425;-75
2023/02/27 10:07:06;;;;;;;0.40;0.40;;;3.70;99.90;;;;;;4358721;32;20662;-79
2023/02/27 10:09:43;;;;;;;0.77;0.77;;;3.70;99.90;;;;;;4375693;32;20074;-75
2023/02/27 10:12:32;;;;;;;0.88;0.88;;;3.70;99.90;;;;;;4372478;32;20086;-77
2023/02/27 10:15:20;;;;;;;5.12;0.70;;;3.70;99.90;;;;;;4359113;32;20090;-75
2023/02/27 10:17:52;;;;;;;1.40;1.30;;;3.80;99.90;;;;;;4368381;32;20094;-78
2023/02/27 10:20:26;;;;;;;0.50;0.50;;;4.00;99.90;;;;;;4371126;32;20133;-76
2023/02/27 10:22:53;;;;;;;0.57;0.57;;;4.00;99.90;;;;;;4375427;32;20144;-77
2023/02/27 10:25:19;;;;;;;0.55;0.55;;;4.00;99.90;;;;;;4372361;32;20097;-75
2023/02/27 10:27:48;;;;;;;0.60;0.60;;;4.20;99.90;;;;;;4365416;32;20094;-77
2023/02/27 10:30:22;;;;;;;0.43;0.43;;;4.30;99.90;;;;;;4372702;32;20070;-75
2023/02/27 10:32:51;;;;;;;0.40;0.40;;;4.40;99.90;;;;;;4369229;32;21711;-75
2023/02/27 10:35:38;;;;;;;0.40;0.40;;;4.50;99.90;;;;;;4377174;32;20066;-77
2023/02/27 10:38:16;;;;;;;2.40;0.77;;;4.50;99.90;;;;;;4358492;32;20110;-76
2023/02/27 10:40:43;;;;;;;0.40;0.40;;;4.60;99.90;;;;;;4371587;32;20486;-77
2023/02/27 10:43:13;;;;;;;0.32;0.32;;;4.60;99.90;;;;;;4369260;32;21467;-76
2023/02/27 10:45:38;;;;;;;1.45;1.27;;;4.70;99.90;;;;;;4377438;32;20556;-76
2023/02/27 10:48:04;;;;;;;0.40;0.40;;;4.80;99.90;;;;;;4369355;32;20530;-76
2023/02/27 10:50:33;;;;;;;0.77;0.77;;;4.90;99.90;;;;;;4377648;32;20102;-76
2023/02/27 10:53:01;;;;;;;0.40;0.40;;;4.90;99.90;;;;;;4368204;32;20618;-76
2023/02/27 10:55:30;;;;;;;0.40;0.40;;;5.00;99.90;;;;;;4373314;32;20397;-78
2023/02/27 10:57:58;;;;;;;0.43;0.43;;;5.00;99.90;;;;;;4372816;32;20085;-77
2023/02/27 11:00:32;;;;;;;0.85;0.85;;;5.10;99.90;;;;;;4378332;32;20219;-78
2023/02/27 11:02:58;;;;;;;0.40;0.40;;;4.90;99.90;;;;;;4378618;32;20067;-77
2023/02/27 11:05:30;;;;;;;0.30;0.30;;;5.00;99.90;;;;;;4377270;32;20093;-76
2023/02/27 11:08:11;;;;;;;0.40;0.40;;;5.20;99.90;;;;;;4372571;32;20156;-78
2023/02/27 11:10:54;;;;;;;0.40;0.40;;;5.30;99.90;;;;;;4359687;32;20102;-74
2023/02/27 11:13:22;;;;;;;0.45;0.45;;;5.50;99.90;;;;;;4377242;32;20775;-77
2023/02/27 11:16:02;;;;;;;0.30;0.30;;;5.50;99.90;;;;;;4376560;32;20082;-76
2023/02/27 11:18:29;;;;;;;0.45;0.45;;;5.50;99.90;;;;;;4370131;32;20086;-77
2023/02/27 11:21:15;;;;;;;0.40;0.40;;;5.60;99.90;;;;;;4378168;32;20110;-76
2023/02/27 11:23:53;;;;;;;0.32;0.32;;;5.80;99.90;;;;;;4382326;32;21581;-76
2023/02/27 11:26:23;;;;;;;0.40;0.40;;;6.10;99.90;;;;;;4382228;32;20545;-76
2023/02/27 11:29:16;;;;;;;0.40;0.40;;;6.10;99.90;;;;;;4368657;32;20725;-77
2023/02/27 11:31:49;;;;;;;0.70;0.70;;;5.90;99.90;;;;;;4363653;32;20082;-76
2023/02/27 11:34:21;;;;;;;0.30;0.30;;;5.80;99.90;;;;;;4370394;32;20085;-77
2023/02/27 11:36:49;;;;;;;0.30;0.30;;;5.90;99.90;;;;;;4376023;32;20089;-77
2023/02/27 11:39:24;;;;;;;0.57;0.57;;;5.90;99.90;;;;;;4374578;32;20161;-76
2023/02/27 11:41:51;;;;;;;2.58;0.90;;;5.80;99.90;;;;;;4371756;32;20114;-75
2023/02/27 11:44:24;;;;;;;1.25;1.15;;;6.00;99.90;;;;;;4370076;32;83946;-77
2023/02/27 11:46:49;;;;;;;0.40;0.40;;;5.90;99.90;;;;;;4377206;32;20647;-74
2023/02/27 11:49:34;;;;;;;0.40;0.40;;;5.90;99.90;;;;;;4360569;32;20074;-75
2023/02/27 11:52:26;;;;;;;0.40;0.40;;;5.60;99.90;;;;;;4367595;32;20183;-75
2023/02/27 11:54:56;;;;;;;0.40;0.40;;;5.50;99.90;;;;;;4356955;32;20077;-74
2023/02/27 11:57:33;;;;;;;0.40;0.40;;;5.60;99.90;;;;;;4377907;32;20148;-74
2023/02/27 12:00:05;;;;;;;0.40;0.40;;;5.70;99.90;;;;;;4371513;32;20176;-75
2023/02/27 12:03:00;;;;;;;0.85;0.50;;;5.70;99.90;;;;;;4373577;32;20216;-74
2023/02/27 12:05:35;;;;;;;0.60;0.60;;;5.70;99.90;;;;;;4372927;32;20537;-76
2023/02/27 12:08:10;;;;;;;0.40;0.40;;;5.60;99.90;;;;;;4374958;32;20788;-76
2023/02/27 12:10:50;;;;;;;0.40;0.40;;;5.40;99.90;;;;;;4380980;32;20082;-74
2023/02/27 12:13:28;;;;;;;0.50;0.50;;;5.20;99.90;;;;;;4376618;32;20103;-76
2023/02/27 12:16:20;;;;;;;0.40;0.40;;;5.20;99.90;;;;;;4370397;32;20117;-75
2023/02/27 12:18:52;;;;;;;0.60;0.60;;;5.50;99.90;;;;;;4368399;32;20105;-75
2023/02/27 12:21:22;;;;;;;0.50;0.50;;;5.80;99.90;;;;;;4371716;32;20098;-75
2023/02/27 12:24:06;;;;;;;4.57;0.95;;;5.90;99.90;;;;;;4371596;32;20850;-77
2023/02/27 12:26:36;;;;;;;0.35;0.35;;;5.80;99.90;;;;;;4357797;32;20134;-75
2023/02/27 12:29:27;;;;;;;0.40;0.40;;;5.70;99.90;;;;;;4372913;32;20085;-74
2023/02/27 12:32:00;;;;;;;0.40;0.40;;;5.70;99.90;;;;;;4358852;32;20191;-75
2023/02/27 12:34:46;;;;;;;0.30;0.30;;;6.70;99.90;;;;;;4367829;32;20482;-76
2023/02/27 12:37:16;;;;;;;0.30;0.30;;;6.80;99.90;;;;;;4358064;32;20091;-76
2023/02/27 12:39:43;;;;;;;0.40;0.40;;;6.60;99.00;;;;;;4362688;32;20102;-75
2023/02/27 12:42:49;;;;;;;0.85;0.85;;;6.30;99.00;;;;;;4375175;32;20097;-75
2023/02/27 12:45:40;;;;;;;0.30;0.30;;;6.20;99.50;;;;;;4372560;32;20087;-75
2023/02/27 12:48:24;;;;;;;0.40;0.40;;;6.10;99.70;;;;;;4355721;32;20074;-76
2023/02/27 12:51:03;;;;;;;0.30;0.30;;;5.80;99.90;;;;;;4370854;32;20115;-76
2023/02/27 12:53:46;;;;;;;0.40;0.40;;;5.70;99.90;;;;;;4384201;32;20501;-76
2023/02/27 12:56:16;;;;;;;0.45;0.45;;;5.60;99.90;;;;;;4384810;32;20509;-74
2023/02/27 12:58:53;;;;;;;0.40;0.40;;;5.40;99.90;;;;;;4378391;32;20655;-74
2023/02/27 13:01:58;;;;;;;0.30;0.30;;;5.40;99.90;;;;;;4377009;32;20999;-75
2023/02/27 13:04:38;;;;;;;1.58;0.93;;;5.40;99.90;;;;;;4358906;32;20081;-74
2023/02/27 13:07:12;;;;;;;0.40;0.40;;;5.30;99.90;;;;;;4381706;32;20104;-74
2023/02/27 13:09:46;;;;;;;0.37;0.37;;;5.20;99.90;;;;;;4380050;32;20128;-74
2023/02/27 13:12:44;;;;;;;1.00;0.73;;;5.20;99.90;;;;;;4377651;32;20214;-75
2023/02/27 13:15:40;;;;;;;0.43;0.43;;;5.10;99.90;;;;;;4368846;32;20233;-74
2023/02/27 13:18:38;;;;;;;0.37;0.37;;;5.20;99.90;;;;;;4365541;32;20102;-74